John C. Munro Hamilton International Airport
CYHM : now visible

Airfield :











YOU CAN JOIN US ON...

 
LOGIN :

Register | Disclaimer

   EN    FR    IT 

 









Legend :    VFR   Marginal VFR   IFR   Intensive IFR   Very Intensive IFR
Visi :
Ceiling :
>= 8 km
>= 3000ft
5 to 8 km
1000 to 3000 ft
1500m to 5 km
500 to 1000 ft
800 to 1500m
200 to 500 ft
< 800m
< 200 ft
Symbols :   Thunderstorms  Fog  Heavy snow  Heavy precipitations  Wind > 20 kt






- Airport Elevation : 780 ft
- IATA code : YHM


CYHM - John C. Munro Hamilton International

CURRENT METAR :
  • 261100Z 06017G22KT 15SM OVC040 M01/M05 A2979 RMK SC8 SLP100

EXPIRED METARs :
  • 261000Z 06017G22KT 15SM FEW042 OVC097 M01/M05 A2980 RMK SC1AC7 PRESFR SLP103
  • 260900Z 06016G22KT 15SM OVC096 M01/M05 A2985 RMK AC8 PRESFR SLP118

TAF TAF CYHM
Valid from the 26 at 06:00 until the 27 at 06:00 UTC


260538Z 2606/2706 06010KT P6SM BKN120
FM261100 06015G25KT P6SM OVC025
TEMPO 2611/2613 5SM -SN BR OVC025
PROB30 2611/2613 2SM -FZDZ BR BKN004
FM261300 08015G25KT 3/4SM -SN VV007
PROB30 2613/2620 11/2SM -PLSN
FM262000 05012G22KT 11/2SM -SN BR OVC007
FM270000 01015G25KT 3SM -SN SCT008 OVC010
PROB30 2700/2703 5SM -FZDZ BR BKN008
FM270300 01012KT P6SM -SN OVC015
PROB30 2703/2706 5SM -FZDZ BR BKN008 RMK NXT FCST BY 261200Z
CZYZ FIR / North America



MET'MAP, your aeronautical weather chart ! - Copyright ORBIFLY December 2007 - Disclaimer

ORBIFLY MET'MAP TEAM :

Programming & Development : Alexandra Zaïnal
Concept & original design : Baudouin d'Aumeries
Assistance for programming : Marc-Olivier Méhu
Technical & hardware support : Manuel Goepfert

Contact : metmap@orbifly.com




SOURCES & CREDITS :

   NOAA       Earth
Advisory